sensor_id;sensor_type;location;lat;lon;timestamp;temperature;humidity
439;DHT22;206;48.782;9.252;2023-07-29T00:01:41;20.10;88.20
439;DHT22;206;48.782;9.252;2023-07-29T00:04:07;20.10;88.90
439;DHT22;206;48.782;9.252;2023-07-29T00:06:35;20.00;89.70
439;DHT22;206;48.782;9.252;2023-07-29T00:09:00;20.00;90.20
439;DHT22;206;48.782;9.252;2023-07-29T00:11:26;20.00;90.20
439;DHT22;206;48.782;9.252;2023-07-29T00:13:51;20.00;90.00
439;DHT22;206;48.782;9.252;2023-07-29T00:16:18;20.00;90.00
439;DHT22;206;48.782;9.252;2023-07-29T00:18:47;20.00;90.70
439;DHT22;206;48.782;9.252;2023-07-29T00:21:13;20.00;90.50
439;DHT22;206;48.782;9.252;2023-07-29T00:23:38;20.00;90.30
439;DHT22;206;48.782;9.252;2023-07-29T00:26:04;20.10;90.30
439;DHT22;206;48.782;9.252;2023-07-29T00:28:30;20.10;89.70
439;DHT22;206;48.782;9.252;2023-07-29T00:30:56;20.10;89.20
439;DHT22;206;48.782;9.252;2023-07-29T00:33:21;20.10;88.20
439;DHT22;206;48.782;9.252;2023-07-29T00:35:47;20.10;87.80
439;DHT22;206;48.782;9.252;2023-07-29T00:38:13;20.10;88.00
439;DHT22;206;48.782;9.252;2023-07-29T00:40:38;20.20;87.00
439;DHT22;206;48.782;9.252;2023-07-29T00:43:04;20.10;87.40
439;DHT22;206;48.782;9.252;2023-07-29T00:45:30;20.10;86.90
439;DHT22;206;48.782;9.252;2023-07-29T00:47:57;20.00;88.00
439;DHT22;206;48.782;9.252;2023-07-29T00:50:23;20.00;88.90
439;DHT22;206;48.782;9.252;2023-07-29T00:52:49;19.90;89.20
439;DHT22;206;48.782;9.252;2023-07-29T00:55:15;19.80;89.80
439;DHT22;206;48.782;9.252;2023-07-29T00:57:41;19.90;90.20
439;DHT22;206;48.782;9.252;2023-07-29T01:00:08;19.90;89.50
439;DHT22;206;48.782;9.252;2023-07-29T01:02:35;20.00;88.90
439;DHT22;206;48.782;9.252;2023-07-29T01:05:01;20.00;88.80
439;DHT22;206;48.782;9.252;2023-07-29T01:07:39;19.90;89.50
439;DHT22;206;48.782;9.252;2023-07-29T01:10:14;20.00;89.30
439;DHT22;206;48.782;9.252;2023-07-29T01:12:47;20.00;89.10
439;DHT22;206;48.782;9.252;2023-07-29T01:17:56;20.10;87.60
439;DHT22;206;48.782;9.252;2023-07-29T01:20:24;20.10;87.10
439;DHT22;206;48.782;9.252;2023-07-29T01:22:50;20.00;87.20
439;DHT22;206;48.782;9.252;2023-07-29T01:25:16;20.10;87.60
439;DHT22;206;48.782;9.252;2023-07-29T01:27:44;20.10;86.50
439;DHT22;206;48.782;9.252;2023-07-29T01:30:11;20.10;85.30
439;DHT22;206;48.782;9.252;2023-07-29T01:32:53;20.10;84.00
439;DHT22;206;48.782;9.252;2023-07-29T01:35:31;20.10;83.90
439;DHT22;206;48.782;9.252;2023-07-29T01:38:04;20.10;84.30
439;DHT22;206;48.782;9.252;2023-07-29T01:40:30;20.00;84.10
439;DHT22;206;48.782;9.252;2023-07-29T01:42:57;20.00;84.10
439;DHT22;206;48.782;9.252;2023-07-29T01:45:25;19.90;84.60
439;DHT22;206;48.782;9.252;2023-07-29T01:47:51;19.80;84.60
439;DHT22;206;48.782;9.252;2023-07-29T01:50:17;19.80;85.50
439;DHT22;206;48.782;9.252;2023-07-29T01:52:43;19.80;86.40
439;DHT22;206;48.782;9.252;2023-07-29T01:55:08;19.70;86.10
439;DHT22;206;48.782;9.252;2023-07-29T01:57:34;19.70;86.60
439;DHT22;206;48.782;9.252;2023-07-29T01:59:59;19.70;87.00
439;DHT22;206;48.782;9.252;2023-07-29T02:02:25;19.80;87.10
439;DHT22;206;48.782;9.252;2023-07-29T02:04:51;19.80;86.50
439;DHT22;206;48.782;9.252;2023-07-29T02:07:18;19.90;86.40
439;DHT22;206;48.782;9.252;2023-07-29T02:09:44;19.90;85.60
439;DHT22;206;48.782;9.252;2023-07-29T02:12:10;19.80;85.20
439;DHT22;206;48.782;9.252;2023-07-29T02:14:36;19.90;85.40
439;DHT22;206;48.782;9.252;2023-07-29T02:17:01;20.00;84.30
439;DHT22;206;48.782;9.252;2023-07-29T02:19:27;20.00;83.80
439;DHT22;206;48.782;9.252;2023-07-29T02:21:52;20.00;84.20
439;DHT22;206;48.782;9.252;2023-07-29T02:24:18;20.00;83.80
439;DHT22;206;48.782;9.252;2023-07-29T02:26:43;20.00;82.90
439;DHT22;206;48.782;9.252;2023-07-29T02:29:09;20.00;83.50
439;DHT22;206;48.782;9.252;2023-07-29T02:31:35;19.90;82.30
439;DHT22;206;48.782;9.252;2023-07-29T02:34:02;19.80;82.90
439;DHT22;206;48.782;9.252;2023-07-29T02:36:28;19.90;82.90
439;DHT22;206;48.782;9.252;2023-07-29T02:38:54;20.00;82.40
439;DHT22;206;48.782;9.252;2023-07-29T02:41:20;19.90;82.30
439;DHT22;206;48.782;9.252;2023-07-29T02:43:48;19.80;82.40
439;DHT22;206;48.782;9.252;2023-07-29T02:46:14;19.90;83.30
439;DHT22;206;48.782;9.252;2023-07-29T02:48:40;20.00;82.40
439;DHT22;206;48.782;9.252;2023-07-29T02:51:05;19.90;82.30
439;DHT22;206;48.782;9.252;2023-07-29T02:53:31;19.90;82.40
439;DHT22;206;48.782;9.252;2023-07-29T02:55:56;19.90;83.10
439;DHT22;206;48.782;9.252;2023-07-29T02:58:22;20.00;84.00
439;DHT22;206;48.782;9.252;2023-07-29T03:00:47;20.00;83.40
439;DHT22;206;48.782;9.252;2023-07-29T03:03:14;19.90;83.60
439;DHT22;206;48.782;9.252;2023-07-29T03:05:39;19.80;84.20
439;DHT22;206;48.782;9.252;2023-07-29T03:08:05;19.80;84.70
439;DHT22;206;48.782;9.252;2023-07-29T03:10:30;19.70;85.70
439;DHT22;206;48.782;9.252;2023-07-29T03:12:56;19.80;85.60
439;DHT22;206;48.782;9.252;2023-07-29T03:15:25;19.80;85.30
439;DHT22;206;48.782;9.252;2023-07-29T03:17:52;19.70;85.20
439;DHT22;206;48.782;9.252;2023-07-29T03:20:17;19.60;85.70
439;DHT22;206;48.782;9.252;2023-07-29T03:22:44;19.50;86.80
439;DHT22;206;48.782;9.252;2023-07-29T03:25:09;19.50;87.20
439;DHT22;206;48.782;9.252;2023-07-29T03:27:35;19.50;86.80
439;DHT22;206;48.782;9.252;2023-07-29T03:30:03;19.50;86.80
439;DHT22;206;48.782;9.252;2023-07-29T03:32:28;19.50;87.00
439;DHT22;206;48.782;9.252;2023-07-29T03:34:54;19.60;86.80
439;DHT22;206;48.782;9.252;2023-07-29T03:37:20;19.50;86.10
439;DHT22;206;48.782;9.252;2023-07-29T03:39:46;19.50;87.40
439;DHT22;206;48.782;9.252;2023-07-29T03:42:12;19.50;87.10
439;DHT22;206;48.782;9.252;2023-07-29T03:44:38;19.60;86.90
439;DHT22;206;48.782;9.252;2023-07-29T03:47:05;19.70;86.10
439;DHT22;206;48.782;9.252;2023-07-29T03:49:31;19.60;85.10
439;DHT22;206;48.782;9.252;2023-07-29T03:51:56;19.60;86.90
439;DHT22;206;48.782;9.252;2023-07-29T03:54:22;19.60;86.60
439;DHT22;206;48.782;9.252;2023-07-29T03:56:47;19.70;86.80
439;DHT22;206;48.782;9.252;2023-07-29T03:59:13;19.70;87.00
439;DHT22;206;48.782;9.252;2023-07-29T04:01:39;19.70;87.00
439;DHT22;206;48.782;9.252;2023-07-29T04:04:04;19.80;85.80
439;DHT22;206;48.782;9.252;2023-07-29T04:06:30;19.80;84.60
439;DHT22;206;48.782;9.252;2023-07-29T04:08:56;19.80;83.10
439;DHT22;206;48.782;9.252;2023-07-29T04:11:22;19.80;83.90
439;DHT22;206;48.782;9.252;2023-07-29T04:13:48;19.80;84.70
439;DHT22;206;48.782;9.252;2023-07-29T04:16:13;19.80;84.20
439;DHT22;206;48.782;9.252;2023-07-29T04:18:39;19.80;84.60
439;DHT22;206;48.782;9.252;2023-07-29T04:21:04;19.70;85.60
439;DHT22;206;48.782;9.252;2023-07-29T04:23:30;19.70;87.00
439;DHT22;206;48.782;9.252;2023-07-29T04:25:56;19.70;87.90
439;DHT22;206;48.782;9.252;2023-07-29T04:28:21;19.70;88.20
439;DHT22;206;48.782;9.252;2023-07-29T04:30:47;19.70;89.20
439;DHT22;206;48.782;9.252;2023-07-29T04:33:12;19.70;89.30
439;DHT22;206;48.782;9.252;2023-07-29T04:35:38;19.80;89.50
439;DHT22;206;48.782;9.252;2023-07-29T04:38:03;19.80;89.20
439;DHT22;206;48.782;9.252;2023-07-29T04:40:29;19.80;89.50
439;DHT22;206;48.782;9.252;2023-07-29T04:42:54;19.80;88.70
439;DHT22;206;48.782;9.252;2023-07-29T04:45:20;19.70;90.10
439;DHT22;206;48.782;9.252;2023-07-29T04:47:46;19.70;90.70
439;DHT22;206;48.782;9.252;2023-07-29T04:50:11;19.70;90.70
439;DHT22;206;48.782;9.252;2023-07-29T04:52:37;19.80;90.80
439;DHT22;206;48.782;9.252;2023-07-29T04:55:02;19.80;90.20
439;DHT22;206;48.782;9.252;2023-07-29T04:57:28;19.80;89.90
439;DHT22;206;48.782;9.252;2023-07-29T04:59:54;19.70;91.00
439;DHT22;206;48.782;9.252;2023-07-29T05:02:20;19.70;90.80
439;DHT22;206;48.782;9.252;2023-07-29T05:04:46;19.60;90.80
439;DHT22;206;48.782;9.252;2023-07-29T05:07:11;19.60;91.90
439;DHT22;206;48.782;9.252;2023-07-29T05:09:37;19.50;92.10
439;DHT22;206;48.782;9.252;2023-07-29T05:12:03;19.60;91.80
439;DHT22;206;48.782;9.252;2023-07-29T05:14:28;19.70;91.40
439;DHT22;206;48.782;9.252;2023-07-29T05:16:54;19.70;91.20
439;DHT22;206;48.782;9.252;2023-07-29T05:19:20;19.60;91.70
439;DHT22;206;48.782;9.252;2023-07-29T05:21:45;19.50;92.40
439;DHT22;206;48.782;9.252;2023-07-29T05:24:11;19.50;93.10
439;DHT22;206;48.782;9.252;2023-07-29T05:26:37;19.60;93.30
439;DHT22;206;48.782;9.252;2023-07-29T05:29:02;19.70;92.00
439;DHT22;206;48.782;9.252;2023-07-29T05:31:29;19.80;91.80
439;DHT22;206;48.782;9.252;2023-07-29T05:33:55;19.80;91.70
439;DHT22;206;48.782;9.252;2023-07-29T05:36:20;19.80;91.10
439;DHT22;206;48.782;9.252;2023-07-29T05:38:46;19.90;91.40
439;DHT22;206;48.782;9.252;2023-07-29T05:41:11;19.90;91.50
439;DHT22;206;48.782;9.252;2023-07-29T05:43:37;19.90;91.50
439;DHT22;206;48.782;9.252;2023-07-29T05:46:03;19.90;90.80
439;DHT22;206;48.782;9.252;2023-07-29T05:48:28;19.90;91.10
439;DHT22;206;48.782;9.252;2023-07-29T05:50:54;20.00;90.90
439;DHT22;206;48.782;9.252;2023-07-29T05:53:19;20.10;90.90
439;DHT22;206;48.782;9.252;2023-07-29T05:55:45;20.10;90.90
439;DHT22;206;48.782;9.252;2023-07-29T05:58:11;20.20;90.80
439;DHT22;206;48.782;9.252;2023-07-29T06:00:36;20.20;90.40
439;DHT22;206;48.782;9.252;2023-07-29T06:03:02;20.30;90.50
439;DHT22;206;48.782;9.252;2023-07-29T06:05:27;20.40;90.20
439;DHT22;206;48.782;9.252;2023-07-29T06:07:53;20.50;89.00
439;DHT22;206;48.782;9.252;2023-07-29T06:10:19;20.50;87.70
439;DHT22;206;48.782;9.252;2023-07-29T06:12:47;20.60;86.90
439;DHT22;206;48.782;9.252;2023-07-29T06:15:13;20.80;85.80
439;DHT22;206;48.782;9.252;2023-07-29T06:17:39;20.90;83.30
439;DHT22;206;48.782;9.252;2023-07-29T06:20:06;21.00;81.50
439;DHT22;206;48.782;9.252;2023-07-29T06:22:32;21.10;81.60
439;DHT22;206;48.782;9.252;2023-07-29T06:24:57;21.10;80.80
439;DHT22;206;48.782;9.252;2023-07-29T06:27:24;21.20;79.70
439;DHT22;206;48.782;9.252;2023-07-29T06:29:50;21.20;79.60
439;DHT22;206;48.782;9.252;2023-07-29T06:32:16;21.20;79.30
439;DHT22;206;48.782;9.252;2023-07-29T06:34:41;21.30;77.70
439;DHT22;206;48.782;9.252;2023-07-29T06:37:07;21.30;77.30
439;DHT22;206;48.782;9.252;2023-07-29T06:39:32;21.30;76.60
439;DHT22;206;48.782;9.252;2023-07-29T06:41:58;21.30;76.20
439;DHT22;206;48.782;9.252;2023-07-29T06:44:23;21.30;76.50
439;DHT22;206;48.782;9.252;2023-07-29T06:46:49;21.40;76.80
439;DHT22;206;48.782;9.252;2023-07-29T06:49:15;21.30;76.70
439;DHT22;206;48.782;9.252;2023-07-29T06:51:40;21.30;77.30
439;DHT22;206;48.782;9.252;2023-07-29T06:54:06;21.30;76.90
439;DHT22;206;48.782;9.252;2023-07-29T06:56:31;21.20;78.30
439;DHT22;206;48.782;9.252;2023-07-29T06:58:57;21.20;78.90
439;DHT22;206;48.782;9.252;2023-07-29T07:01:23;21.20;79.20
439;DHT22;206;48.782;9.252;2023-07-29T07:03:48;21.30;78.80
439;DHT22;206;48.782;9.252;2023-07-29T07:06:14;21.20;79.80
439;DHT22;206;48.782;9.252;2023-07-29T07:08:39;21.20;80.20
439;DHT22;206;48.782;9.252;2023-07-29T07:11:06;21.10;81.90
439;DHT22;206;48.782;9.252;2023-07-29T07:13:31;21.10;83.50
439;DHT22;206;48.782;9.252;2023-07-29T07:15:57;21.00;84.40
439;DHT22;206;48.782;9.252;2023-07-29T07:18:23;20.90;85.00
439;DHT22;206;48.782;9.252;2023-07-29T07:20:49;20.90;86.70
439;DHT22;206;48.782;9.252;2023-07-29T07:23:15;20.80;86.90
439;DHT22;206;48.782;9.252;2023-07-29T07:25:41;20.90;88.00
439;DHT22;206;48.782;9.252;2023-07-29T07:28:08;20.80;87.00
439;DHT22;206;48.782;9.252;2023-07-29T07:30:34;20.90;86.10
439;DHT22;206;48.782;9.252;2023-07-29T07:33:00;20.90;85.30
439;DHT22;206;48.782;9.252;2023-07-29T07:35:26;21.00;86.40
439;DHT22;206;48.782;9.252;2023-07-29T07:37:51;21.00;84.50
439;DHT22;206;48.782;9.252;2023-07-29T07:40:17;21.00;84.30
439;DHT22;206;48.782;9.252;2023-07-29T07:42:42;21.10;84.40
439;DHT22;206;48.782;9.252;2023-07-29T07:45:08;21.20;83.60
439;DHT22;206;48.782;9.252;2023-07-29T07:47:34;21.30;83.50
439;DHT22;206;48.782;9.252;2023-07-29T07:49:59;21.40;80.60
439;DHT22;206;48.782;9.252;2023-07-29T07:52:25;21.50;78.40
439;DHT22;206;48.782;9.252;2023-07-29T07:54:54;21.50;79.70
439;DHT22;206;48.782;9.252;2023-07-29T07:57:22;21.60;78.40
439;DHT22;206;48.782;9.252;2023-07-29T07:59:48;21.60;78.10
439;DHT22;206;48.782;9.252;2023-07-29T08:02:14;21.60;78.20
439;DHT22;206;48.782;9.252;2023-07-29T08:04:39;21.60;79.10
439;DHT22;206;48.782;9.252;2023-07-29T08:07:05;21.60;79.10
439;DHT22;206;48.782;9.252;2023-07-29T08:09:31;21.70;79.20
439;DHT22;206;48.782;9.252;2023-07-29T08:11:56;21.80;79.10
439;DHT22;206;48.782;9.252;2023-07-29T08:14:22;21.80;79.00
439;DHT22;206;48.782;9.252;2023-07-29T08:16:48;21.80;79.30
439;DHT22;206;48.782;9.252;2023-07-29T08:19:13;21.90;78.30
439;DHT22;206;48.782;9.252;2023-07-29T08:21:39;21.90;78.40
439;DHT22;206;48.782;9.252;2023-07-29T08:24:04;22.00;76.90
439;DHT22;206;48.782;9.252;2023-07-29T08:26:32;22.20;73.40
439;DHT22;206;48.782;9.252;2023-07-29T08:28:57;22.40;70.90
439;DHT22;206;48.782;9.252;2023-07-29T08:31:23;22.50;70.10
439;DHT22;206;48.782;9.252;2023-07-29T08:33:48;22.60;67.80
439;DHT22;206;48.782;9.252;2023-07-29T08:36:14;22.70;67.30
439;DHT22;206;48.782;9.252;2023-07-29T08:38:39;22.90;65.20
439;DHT22;206;48.782;9.252;2023-07-29T08:41:19;23.00;65.30
439;DHT22;206;48.782;9.252;2023-07-29T08:44:02;23.00;64.90
439;DHT22;206;48.782;9.252;2023-07-29T08:46:29;23.10;64.00
439;DHT22;206;48.782;9.252;2023-07-29T08:48:55;23.20;63.30
439;DHT22;206;48.782;9.252;2023-07-29T08:51:21;23.20;62.80
439;DHT22;206;48.782;9.252;2023-07-29T08:53:49;23.30;62.60
439;DHT22;206;48.782;9.252;2023-07-29T08:56:15;23.40;62.10
439;DHT22;206;48.782;9.252;2023-07-29T08:58:41;23.40;62.00
439;DHT22;206;48.782;9.252;2023-07-29T09:01:07;23.50;60.90
439;DHT22;206;48.782;9.252;2023-07-29T09:03:33;23.70;62.30
439;DHT22;206;48.782;9.252;2023-07-29T09:05:58;23.80;61.30
439;DHT22;206;48.782;9.252;2023-07-29T09:08:26;24.00;59.80
439;DHT22;206;48.782;9.252;2023-07-29T09:10:51;24.10;58.30
439;DHT22;206;48.782;9.252;2023-07-29T09:13:17;24.30;58.20
439;DHT22;206;48.782;9.252;2023-07-29T09:15:43;24.50;58.70
439;DHT22;206;48.782;9.252;2023-07-29T09:18:10;24.70;57.60
439;DHT22;206;48.782;9.252;2023-07-29T09:20:36;24.80;54.50
439;DHT22;206;48.782;9.252;2023-07-29T09:23:02;24.90;54.50
439;DHT22;206;48.782;9.252;2023-07-29T09:25:29;25.00;54.10
439;DHT22;206;48.782;9.252;2023-07-29T09:27:59;25.10;52.60
439;DHT22;206;48.782;9.252;2023-07-29T09:30:28;25.20;51.70
439;DHT22;206;48.782;9.252;2023-07-29T09:32:57;25.20;51.80
439;DHT22;206;48.782;9.252;2023-07-29T09:35:27;25.20;52.60
439;DHT22;206;48.782;9.252;2023-07-29T09:37:53;25.20;52.40
439;DHT22;206;48.782;9.252;2023-07-29T09:40:19;25.20;51.50
439;DHT22;206;48.782;9.252;2023-07-29T09:42:54;25.20;50.40
439;DHT22;206;48.782;9.252;2023-07-29T09:45:24;25.30;51.10
439;DHT22;206;48.782;9.252;2023-07-29T09:47:50;25.30;50.70
439;DHT22;206;48.782;9.252;2023-07-29T09:50:16;25.40;51.10
439;DHT22;206;48.782;9.252;2023-07-29T09:52:42;25.60;48.60
439;DHT22;206;48.782;9.252;2023-07-29T09:55:13;25.60;48.00
439;DHT22;206;48.782;9.252;2023-07-29T09:57:40;25.60;48.50
439;DHT22;206;48.782;9.252;2023-07-29T10:00:06;25.60;42.40
439;DHT22;206;48.782;9.252;2023-07-29T10:02:37;25.60;43.70
439;DHT22;206;48.782;9.252;2023-07-29T10:05:04;25.80;45.70
439;DHT22;206;48.782;9.252;2023-07-29T10:07:31;25.90;44.50
439;DHT22;206;48.782;9.252;2023-07-29T10:09:57;26.10;43.00
439;DHT22;206;48.782;9.252;2023-07-29T10:12:24;26.30;42.30
439;DHT22;206;48.782;9.252;2023-07-29T10:14:50;26.40;40.10
439;DHT22;206;48.782;9.252;2023-07-29T10:17:16;26.50;39.40
439;DHT22;206;48.782;9.252;2023-07-29T10:19:43;26.60;39.10
439;DHT22;206;48.782;9.252;2023-07-29T10:22:11;26.60;39.20
439;DHT22;206;48.782;9.252;2023-07-29T10:24:39;26.70;35.20
439;DHT22;206;48.782;9.252;2023-07-29T10:27:07;26.70;32.80
439;DHT22;206;48.782;9.252;2023-07-29T10:29:38;26.70;34.40
439;DHT22;206;48.782;9.252;2023-07-29T10:32:06;26.80;33.30
439;DHT22;206;48.782;9.252;2023-07-29T10:34:33;26.80;33.80
439;DHT22;206;48.782;9.252;2023-07-29T10:37:01;26.80;31.10
439;DHT22;206;48.782;9.252;2023-07-29T10:39:26;26.60;31.20
439;DHT22;206;48.782;9.252;2023-07-29T10:42:00;26.50;34.80
439;DHT22;206;48.782;9.252;2023-07-29T10:47:19;25.60;41.70
439;DHT22;206;48.782;9.252;2023-07-29T10:49:49;25.40;45.10
439;DHT22;206;48.782;9.252;2023-07-29T10:52:16;25.40;45.10
439;DHT22;206;48.782;9.252;2023-07-29T10:54:43;25.40;48.90
439;DHT22;206;48.782;9.252;2023-07-29T10:57:30;25.50;47.40
439;DHT22;206;48.782;9.252;2023-07-29T10:59:56;25.50;44.80
439;DHT22;206;48.782;9.252;2023-07-29T11:02:37;25.70;42.60
439;DHT22;206;48.782;9.252;2023-07-29T11:05:07;25.90;39.90
439;DHT22;206;48.782;9.252;2023-07-29T11:07:44;25.80;37.40
439;DHT22;206;48.782;9.252;2023-07-29T11:10:09;25.80;37.50
439;DHT22;206;48.782;9.252;2023-07-29T11:12:50;25.70;37.30
439;DHT22;206;48.782;9.252;2023-07-29T11:15:25;25.70;38.50
439;DHT22;206;48.782;9.252;2023-07-29T11:17:59;25.70;36.60
439;DHT22;206;48.782;9.252;2023-07-29T11:20:32;25.70;37.30
439;DHT22;206;48.782;9.252;2023-07-29T11:23:03;25.70;37.10
439;DHT22;206;48.782;9.252;2023-07-29T11:25:30;25.70;37.30
439;DHT22;206;48.782;9.252;2023-07-29T11:27:57;25.90;37.00
439;DHT22;206;48.782;9.252;2023-07-29T11:30:22;26.10;35.60
439;DHT22;206;48.782;9.252;2023-07-29T11:32:59;26.30;34.30
439;DHT22;206;48.782;9.252;2023-07-29T11:35:25;26.60;32.40
439;DHT22;206;48.782;9.252;2023-07-29T11:37:52;26.80;31.00
439;DHT22;206;48.782;9.252;2023-07-29T11:40:19;26.90;30.40
439;DHT22;206;48.782;9.252;2023-07-29T11:42:46;27.00;30.90
439;DHT22;206;48.782;9.252;2023-07-29T11:45:13;27.00;30.30
439;DHT22;206;48.782;9.252;2023-07-29T11:47:38;26.90;30.40
439;DHT22;206;48.782;9.252;2023-07-29T11:50:06;26.90;30.70
439;DHT22;206;48.782;9.252;2023-07-29T11:52:37;26.80;30.90
439;DHT22;206;48.782;9.252;2023-07-29T11:55:05;26.90;30.40
439;DHT22;206;48.782;9.252;2023-07-29T11:57:34;26.90;30.00
439;DHT22;206;48.782;9.252;2023-07-29T12:00:05;27.00;30.10
439;DHT22;206;48.782;9.252;2023-07-29T12:02:32;27.10;30.20
439;DHT22;206;48.782;9.252;2023-07-29T12:05:00;27.20;29.50
439;DHT22;206;48.782;9.252;2023-07-29T12:07:27;27.20;28.40
439;DHT22;206;48.782;9.252;2023-07-29T12:09:52;27.30;29.00
439;DHT22;206;48.782;9.252;2023-07-29T12:12:18;27.30;28.40
439;DHT22;206;48.782;9.252;2023-07-29T12:14:45;27.30;28.40
439;DHT22;206;48.782;9.252;2023-07-29T12:17:12;27.50;28.50
439;DHT22;206;48.782;9.252;2023-07-29T12:19:39;27.60;28.10
439;DHT22;206;48.782;9.252;2023-07-29T12:22:07;27.70;27.60
439;DHT22;206;48.782;9.252;2023-07-29T12:24:34;27.70;26.80
439;DHT22;206;48.782;9.252;2023-07-29T12:27:00;27.70;27.20
439;DHT22;206;48.782;9.252;2023-07-29T12:29:26;27.70;27.50
439;DHT22;206;48.782;9.252;2023-07-29T12:31:59;27.60;27.00
439;DHT22;206;48.782;9.252;2023-07-29T12:34:26;27.60;27.20
439;DHT22;206;48.782;9.252;2023-07-29T12:36:54;27.70;26.60
439;DHT22;206;48.782;9.252;2023-07-29T12:39:27;28.00;27.10
439;DHT22;206;48.782;9.252;2023-07-29T12:41:57;28.10;26.60
439;DHT22;206;48.782;9.252;2023-07-29T12:44:24;28.30;24.70
439;DHT22;206;48.782;9.252;2023-07-29T12:46:50;28.40;24.60
439;DHT22;206;48.782;9.252;2023-07-29T12:49:16;28.40;23.40
439;DHT22;206;48.782;9.252;2023-07-29T12:51:42;28.50;22.20
439;DHT22;206;48.782;9.252;2023-07-29T12:54:08;28.70;20.70
439;DHT22;206;48.782;9.252;2023-07-29T12:56:34;28.80;19.10
439;DHT22;206;48.782;9.252;2023-07-29T12:59:01;28.90;18.20
439;DHT22;206;48.782;9.252;2023-07-29T13:01:27;28.90;17.40
439;DHT22;206;48.782;9.252;2023-07-29T13:03:53;29.00;17.70
439;DHT22;206;48.782;9.252;2023-07-29T13:06:20;29.00;17.00
439;DHT22;206;48.782;9.252;2023-07-29T13:08:46;28.90;17.40
439;DHT22;206;48.782;9.252;2023-07-29T13:11:12;28.80;17.20
439;DHT22;206;48.782;9.252;2023-07-29T13:13:37;28.80;17.50
439;DHT22;206;48.782;9.252;2023-07-29T13:16:04;28.80;17.40
439;DHT22;206;48.782;9.252;2023-07-29T13:18:29;28.80;17.60
439;DHT22;206;48.782;9.252;2023-07-29T13:20:55;28.80;18.10
439;DHT22;206;48.782;9.252;2023-07-29T13:23:21;28.80;18.10
439;DHT22;206;48.782;9.252;2023-07-29T13:25:47;28.90;18.20
439;DHT22;206;48.782;9.252;2023-07-29T13:28:13;28.80;18.00
439;DHT22;206;48.782;9.252;2023-07-29T13:30:39;28.80;18.00
439;DHT22;206;48.782;9.252;2023-07-29T13:33:06;28.70;18.10
439;DHT22;206;48.782;9.252;2023-07-29T13:35:32;28.70;18.00
439;DHT22;206;48.782;9.252;2023-07-29T13:37:58;28.70;18.50
439;DHT22;206;48.782;9.252;2023-07-29T13:40:24;28.80;18.60
439;DHT22;206;48.782;9.252;2023-07-29T13:42:49;28.80;18.10
439;DHT22;206;48.782;9.252;2023-07-29T13:45:15;28.80;18.00
439;DHT22;206;48.782;9.252;2023-07-29T13:47:40;28.80;18.00
439;DHT22;206;48.782;9.252;2023-07-29T13:50:06;28.80;17.90
439;DHT22;206;48.782;9.252;2023-07-29T13:52:33;28.80;17.80
439;DHT22;206;48.782;9.252;2023-07-29T13:54:59;28.80;17.70
439;DHT22;206;48.782;9.252;2023-07-29T13:57:25;28.80;17.50
439;DHT22;206;48.782;9.252;2023-07-29T13:59:50;28.80;17.60
439;DHT22;206;48.782;9.252;2023-07-29T14:02:16;28.80;17.70
439;DHT22;206;48.782;9.252;2023-07-29T14:04:41;28.90;17.70
439;DHT22;206;48.782;9.252;2023-07-29T14:07:07;29.00;17.70
439;DHT22;206;48.782;9.252;2023-07-29T14:09:32;29.00;17.20
439;DHT22;206;48.782;9.252;2023-07-29T14:11:58;28.90;17.00
439;DHT22;206;48.782;9.252;2023-07-29T14:14:24;28.90;17.00
439;DHT22;206;48.782;9.252;2023-07-29T14:16:49;28.80;16.80
439;DHT22;206;48.782;9.252;2023-07-29T14:19:15;28.80;17.00
439;DHT22;206;48.782;9.252;2023-07-29T14:21:40;28.80;17.30
439;DHT22;206;48.782;9.252;2023-07-29T14:24:06;28.80;17.40
439;DHT22;206;48.782;9.252;2023-07-29T14:26:31;28.80;17.50
439;DHT22;206;48.782;9.252;2023-07-29T14:28:57;28.80;17.40
439;DHT22;206;48.782;9.252;2023-07-29T14:31:23;28.80;17.40
439;DHT22;206;48.782;9.252;2023-07-29T14:33:48;28.80;17.60
439;DHT22;206;48.782;9.252;2023-07-29T14:36:17;28.80;17.80
439;DHT22;206;48.782;9.252;2023-07-29T14:38:42;28.70;17.70
439;DHT22;206;48.782;9.252;2023-07-29T14:41:08;28.70;17.70
439;DHT22;206;48.782;9.252;2023-07-29T14:43:34;28.80;17.80
439;DHT22;206;48.782;9.252;2023-07-29T14:46:00;28.70;18.00
439;DHT22;206;48.782;9.252;2023-07-29T14:48:26;28.60;17.90
439;DHT22;206;48.782;9.252;2023-07-29T14:50:51;28.70;17.70
439;DHT22;206;48.782;9.252;2023-07-29T14:53:17;28.70;17.90
439;DHT22;206;48.782;9.252;2023-07-29T14:55:42;28.70;18.00
439;DHT22;206;48.782;9.252;2023-07-29T14:58:08;28.60;18.20
439;DHT22;206;48.782;9.252;2023-07-29T15:00:34;28.60;18.10
439;DHT22;206;48.782;9.252;2023-07-29T15:02:59;28.50;18.40
439;DHT22;206;48.782;9.252;2023-07-29T15:05:25;28.40;19.50
439;DHT22;206;48.782;9.252;2023-07-29T15:07:51;28.30;19.20
439;DHT22;206;48.782;9.252;2023-07-29T15:10:17;28.30;19.20
439;DHT22;206;48.782;9.252;2023-07-29T15:12:43;28.30;19.40
439;DHT22;206;48.782;9.252;2023-07-29T15:15:10;28.40;19.30
439;DHT22;206;48.782;9.252;2023-07-29T15:17:36;28.40;18.70
439;DHT22;206;48.782;9.252;2023-07-29T15:20:03;28.50;18.70
439;DHT22;206;48.782;9.252;2023-07-29T15:22:31;28.60;18.70
439;DHT22;206;48.782;9.252;2023-07-29T15:24:57;28.60;18.90
439;DHT22;206;48.782;9.252;2023-07-29T15:27:25;28.50;18.90
439;DHT22;206;48.782;9.252;2023-07-29T15:29:51;28.50;19.20
439;DHT22;206;48.782;9.252;2023-07-29T15:32:16;28.40;19.30
439;DHT22;206;48.782;9.252;2023-07-29T15:34:42;28.40;19.10
439;DHT22;206;48.782;9.252;2023-07-29T15:37:07;28.40;18.50
439;DHT22;206;48.782;9.252;2023-07-29T15:39:33;28.50;18.70
439;DHT22;206;48.782;9.252;2023-07-29T15:41:59;28.50;18.60
439;DHT22;206;48.782;9.252;2023-07-29T15:44:24;28.50;18.70
439;DHT22;206;48.782;9.252;2023-07-29T15:46:50;28.60;18.50
439;DHT22;206;48.782;9.252;2023-07-29T15:49:17;28.60;18.70
439;DHT22;206;48.782;9.252;2023-07-29T15:51:43;28.60;18.80
439;DHT22;206;48.782;9.252;2023-07-29T15:54:08;28.60;18.90
439;DHT22;206;48.782;9.252;2023-07-29T15:56:34;28.60;18.50
439;DHT22;206;48.782;9.252;2023-07-29T15:59:02;28.60;18.80
439;DHT22;206;48.782;9.252;2023-07-29T16:01:28;28.70;18.50
439;DHT22;206;48.782;9.252;2023-07-29T16:03:54;28.70;18.20
439;DHT22;206;48.782;9.252;2023-07-29T16:06:20;28.70;17.70
439;DHT22;206;48.782;9.252;2023-07-29T16:08:46;28.70;18.40
439;DHT22;206;48.782;9.252;2023-07-29T16:11:11;28.60;18.80
439;DHT22;206;48.782;9.252;2023-07-29T16:13:37;28.50;18.50
439;DHT22;206;48.782;9.252;2023-07-29T16:16:02;28.40;18.50
439;DHT22;206;48.782;9.252;2023-07-29T16:18:29;28.40;18.70
439;DHT22;206;48.782;9.252;2023-07-29T16:20:55;28.40;18.50
439;DHT22;206;48.782;9.252;2023-07-29T16:23:30;28.40;18.80
439;DHT22;206;48.782;9.252;2023-07-29T16:25:56;28.50;18.30
439;DHT22;206;48.782;9.252;2023-07-29T16:28:22;28.50;17.80
439;DHT22;206;48.782;9.252;2023-07-29T16:30:48;28.40;17.60
439;DHT22;206;48.782;9.252;2023-07-29T16:33:14;28.30;17.30
439;DHT22;206;48.782;9.252;2023-07-29T16:35:39;28.20;17.20